sensor_id;sensor_type;location;lat;lon;timestamp;P1;durP1;ratioP1;P2;durP2;ratioP2
76348;SDS011;65172;46.764;15.406;2023-03-24T00:01:50;15.15;;;11.25;;
76348;SDS011;65172;46.764;15.406;2023-03-24T00:04:15;17.40;;;10.85;;
76348;SDS011;65172;46.764;15.406;2023-03-24T00:06:41;15.80;;;11.45;;
76348;SDS011;65172;46.764;15.406;2023-03-24T00:09:07;18.23;;;10.50;;
76348;SDS011;65172;46.764;15.406;2023-03-24T00:11:33;15.20;;;10.18;;
76348;SDS011;65172;46.764;15.406;2023-03-24T00:14:02;14.13;;;9.85;;
76348;SDS011;65172;46.764;15.406;2023-03-24T00:16:28;15.30;;;11.07;;
76348;SDS011;65172;46.764;15.406;2023-03-24T00:18:53;16.35;;;10.05;;
76348;SDS011;65172;46.764;15.406;2023-03-24T00:21:20;13.52;;;9.82;;
76348;SDS011;65172;46.764;15.406;2023-03-24T00:23:48;17.38;;;9.73;;
76348;SDS011;65172;46.764;15.406;2023-03-24T00:26:15;12.05;;;8.75;;
76348;SDS011;65172;46.764;15.406;2023-03-24T00:28:42;17.25;;;10.48;;
76348;SDS011;65172;46.764;15.406;2023-03-24T00:31:09;16.88;;;10.57;;
76348;SDS011;65172;46.764;15.406;2023-03-24T00:33:35;14.48;;;11.25;;
76348;SDS011;65172;46.764;15.406;2023-03-24T00:36:02;15.93;;;11.32;;
76348;SDS011;65172;46.764;15.406;2023-03-24T00:38:30;16.20;;;11.20;;
76348;SDS011;65172;46.764;15.406;2023-03-24T00:40:56;19.10;;;9.70;;
76348;SDS011;65172;46.764;15.406;2023-03-24T00:43:23;11.70;;;8.80;;
76348;SDS011;65172;46.764;15.406;2023-03-24T00:45:48;15.25;;;8.88;;
76348;SDS011;65172;46.764;15.406;2023-03-24T00:48:17;13.00;;;8.65;;
76348;SDS011;65172;46.764;15.406;2023-03-24T00:50:44;15.77;;;9.10;;
76348;SDS011;65172;46.764;15.406;2023-03-24T00:53:11;12.70;;;8.52;;
76348;SDS011;65172;46.764;15.406;2023-03-24T00:55:39;14.23;;;8.27;;
76348;SDS011;65172;46.764;15.406;2023-03-24T00:58:05;11.57;;;7.90;;
76348;SDS011;65172;46.764;15.406;2023-03-24T01:00:31;12.38;;;8.35;;
76348;SDS011;65172;46.764;15.406;2023-03-24T01:02:56;11.60;;;7.68;;
76348;SDS011;65172;46.764;15.406;2023-03-24T01:05:27;14.45;;;8.52;;
76348;SDS011;65172;46.764;15.406;2023-03-24T01:07:55;10.43;;;7.32;;
76348;SDS011;65172;46.764;15.406;2023-03-24T01:10:21;10.02;;;7.25;;
76348;SDS011;65172;46.764;15.406;2023-03-24T01:12:55;10.48;;;6.93;;
76348;SDS011;65172;46.764;15.406;2023-03-24T01:15:23;13.15;;;7.45;;
76348;SDS011;65172;46.764;15.406;2023-03-24T01:17:50;13.15;;;7.60;;
76348;SDS011;65172;46.764;15.406;2023-03-24T01:20:17;9.70;;;8.05;;
76348;SDS011;65172;46.764;15.406;2023-03-24T01:22:43;9.63;;;7.60;;
76348;SDS011;65172;46.764;15.406;2023-03-24T01:25:14;10.63;;;6.97;;
76348;SDS011;65172;46.764;15.406;2023-03-24T01:27:44;9.95;;;6.90;;
76348;SDS011;65172;46.764;15.406;2023-03-24T01:30:12;10.43;;;7.22;;
76348;SDS011;65172;46.764;15.406;2023-03-24T01:32:39;9.63;;;7.00;;
76348;SDS011;65172;46.764;15.406;2023-03-24T01:35:06;11.40;;;7.53;;
76348;SDS011;65172;46.764;15.406;2023-03-24T01:37:31;9.15;;;7.13;;
76348;SDS011;65172;46.764;15.406;2023-03-24T01:39:57;12.00;;;7.40;;
76348;SDS011;65172;46.764;15.406;2023-03-24T01:42:24;9.98;;;6.88;;
76348;SDS011;65172;46.764;15.406;2023-03-24T01:44:53;8.48;;;6.60;;
76348;SDS011;65172;46.764;15.406;2023-03-24T01:47:21;9.15;;;6.93;;
76348;SDS011;65172;46.764;15.406;2023-03-24T01:49:51;9.48;;;6.93;;
76348;SDS011;65172;46.764;15.406;2023-03-24T01:52:20;12.30;;;7.53;;
76348;SDS011;65172;46.764;15.406;2023-03-24T01:54:49;15.30;;;7.60;;
76348;SDS011;65172;46.764;15.406;2023-03-24T01:57:22;10.60;;;7.72;;
76348;SDS011;65172;46.764;15.406;2023-03-24T01:59:52;13.85;;;7.93;;
76348;SDS011;65172;46.764;15.406;2023-03-24T02:02:19;10.05;;;6.97;;
76348;SDS011;65172;46.764;15.406;2023-03-24T02:04:50;10.35;;;7.13;;
76348;SDS011;65172;46.764;15.406;2023-03-24T02:07:34;8.60;;;6.72;;
76348;SDS011;65172;46.764;15.406;2023-03-24T02:10:03;11.50;;;8.77;;
76348;SDS011;65172;46.764;15.406;2023-03-24T02:12:31;16.42;;;7.63;;
76348;SDS011;65172;46.764;15.406;2023-03-24T02:14:57;11.80;;;7.60;;
76348;SDS011;65172;46.764;15.406;2023-03-24T02:17:34;10.88;;;7.28;;
76348;SDS011;65172;46.764;15.406;2023-03-24T02:23:21;8.73;;;6.80;;
76348;SDS011;65172;46.764;15.406;2023-03-24T02:46:08;12.68;;;7.60;;
76348;SDS011;65172;46.764;15.406;2023-03-24T02:48:57;10.00;;;6.57;;
76348;SDS011;65172;46.764;15.406;2023-03-24T02:51:31;11.05;;;7.32;;
76348;SDS011;65172;46.764;15.406;2023-03-24T02:54:08;12.23;;;7.85;;
76348;SDS011;65172;46.764;15.406;2023-03-24T02:56:45;9.63;;;8.10;;
76348;SDS011;65172;46.764;15.406;2023-03-24T02:59:18;13.13;;;7.22;;
76348;SDS011;65172;46.764;15.406;2023-03-24T03:01:48;10.55;;;7.30;;
76348;SDS011;65172;46.764;15.406;2023-03-24T03:04:22;10.88;;;8.07;;
76348;SDS011;65172;46.764;15.406;2023-03-24T03:07:04;12.55;;;8.18;;
76348;SDS011;65172;46.764;15.406;2023-03-24T03:09:34;10.57;;;7.47;;
76348;SDS011;65172;46.764;15.406;2023-03-24T03:12:01;12.88;;;7.75;;
76348;SDS011;65172;46.764;15.406;2023-03-24T03:14:31;12.05;;;7.72;;
76348;SDS011;65172;46.764;15.406;2023-03-24T03:17:15;12.48;;;8.40;;
76348;SDS011;65172;46.764;15.406;2023-03-24T03:19:44;14.48;;;9.93;;
76348;SDS011;65172;46.764;15.406;2023-03-24T03:22:16;15.38;;;11.82;;
76348;SDS011;65172;46.764;15.406;2023-03-24T03:24:46;19.40;;;12.75;;
76348;SDS011;65172;46.764;15.406;2023-03-24T03:27:24;18.73;;;12.10;;
76348;SDS011;65172;46.764;15.406;2023-03-24T03:29:53;19.23;;;11.52;;
76348;SDS011;65172;46.764;15.406;2023-03-24T03:32:25;17.73;;;12.55;;
76348;SDS011;65172;46.764;15.406;2023-03-24T03:35:03;18.27;;;12.30;;
76348;SDS011;65172;46.764;15.406;2023-03-24T03:38:14;17.20;;;11.57;;
76348;SDS011;65172;46.764;15.406;2023-03-24T03:40:52;15.15;;;10.57;;
76348;SDS011;65172;46.764;15.406;2023-03-24T03:43:24;17.40;;;10.75;;
76348;SDS011;65172;46.764;15.406;2023-03-24T03:45:51;17.80;;;11.23;;
76348;SDS011;65172;46.764;15.406;2023-03-24T03:48:16;13.68;;;10.65;;
76348;SDS011;65172;46.764;15.406;2023-03-24T03:50:42;15.98;;;10.05;;
76348;SDS011;65172;46.764;15.406;2023-03-24T03:53:08;13.80;;;9.20;;
76348;SDS011;65172;46.764;15.406;2023-03-24T03:55:33;11.75;;;8.90;;
76348;SDS011;65172;46.764;15.406;2023-03-24T03:57:59;15.95;;;8.98;;
76348;SDS011;65172;46.764;15.406;2023-03-24T04:00:28;12.23;;;9.18;;
76348;SDS011;65172;46.764;15.406;2023-03-24T04:03:03;10.90;;;8.40;;
76348;SDS011;65172;46.764;15.406;2023-03-24T04:05:40;11.40;;;8.70;;
76348;SDS011;65172;46.764;15.406;2023-03-24T04:13:32;12.98;;;7.85;;
76348;SDS011;65172;46.764;15.406;2023-03-24T04:18:53;10.73;;;8.38;;
76348;SDS011;65172;46.764;15.406;2023-03-24T04:21:30;14.63;;;9.52;;
76348;SDS011;65172;46.764;15.406;2023-03-24T04:26:42;13.32;;;9.20;;
76348;SDS011;65172;46.764;15.406;2023-03-24T04:34:42;12.82;;;8.45;;
76348;SDS011;65172;46.764;15.406;2023-03-24T04:37:13;9.93;;;8.23;;
76348;SDS011;65172;46.764;15.406;2023-03-24T04:39:44;23.80;;;9.77;;
76348;SDS011;65172;46.764;15.406;2023-03-24T04:42:21;12.88;;;8.75;;
76348;SDS011;65172;46.764;15.406;2023-03-24T04:44:50;14.50;;;8.90;;
76348;SDS011;65172;46.764;15.406;2023-03-24T04:47:17;14.00;;;10.02;;
76348;SDS011;65172;46.764;15.406;2023-03-24T04:49:45;12.65;;;8.70;;
76348;SDS011;65172;46.764;15.406;2023-03-24T04:52:10;12.70;;;9.10;;
76348;SDS011;65172;46.764;15.406;2023-03-24T04:54:36;16.52;;;9.68;;
76348;SDS011;65172;46.764;15.406;2023-03-24T04:57:01;12.15;;;9.00;;
76348;SDS011;65172;46.764;15.406;2023-03-24T04:59:28;12.10;;;9.07;;
76348;SDS011;65172;46.764;15.406;2023-03-24T05:01:55;12.73;;;8.95;;
76348;SDS011;65172;46.764;15.406;2023-03-24T05:04:22;14.70;;;10.02;;
76348;SDS011;65172;46.764;15.406;2023-03-24T05:06:52;13.23;;;10.00;;
76348;SDS011;65172;46.764;15.406;2023-03-24T05:09:19;14.38;;;8.98;;
76348;SDS011;65172;46.764;15.406;2023-03-24T05:11:45;11.77;;;9.15;;
76348;SDS011;65172;46.764;15.406;2023-03-24T05:14:11;17.55;;;10.15;;
76348;SDS011;65172;46.764;15.406;2023-03-24T05:16:37;10.60;;;8.10;;
76348;SDS011;65172;46.764;15.406;2023-03-24T05:19:02;11.55;;;8.75;;
76348;SDS011;65172;46.764;15.406;2023-03-24T05:21:28;15.88;;;9.98;;
76348;SDS011;65172;46.764;15.406;2023-03-24T05:23:53;15.93;;;10.13;;
76348;SDS011;65172;46.764;15.406;2023-03-24T05:26:19;18.45;;;9.02;;
76348;SDS011;65172;46.764;15.406;2023-03-24T05:28:45;13.95;;;10.27;;
76348;SDS011;65172;46.764;15.406;2023-03-24T05:31:10;13.63;;;9.38;;
76348;SDS011;65172;46.764;15.406;2023-03-24T05:33:35;13.88;;;10.02;;
76348;SDS011;65172;46.764;15.406;2023-03-24T05:36:01;14.48;;;10.27;;
76348;SDS011;65172;46.764;15.406;2023-03-24T05:38:27;16.55;;;10.00;;
76348;SDS011;65172;46.764;15.406;2023-03-24T05:40:56;16.92;;;10.60;;
76348;SDS011;65172;46.764;15.406;2023-03-24T05:43:22;14.73;;;10.45;;
76348;SDS011;65172;46.764;15.406;2023-03-24T05:45:48;15.65;;;10.23;;
76348;SDS011;65172;46.764;15.406;2023-03-24T05:48:13;12.00;;;8.30;;
76348;SDS011;65172;46.764;15.406;2023-03-24T05:50:39;13.80;;;10.38;;
76348;SDS011;65172;46.764;15.406;2023-03-24T05:53:04;13.13;;;9.57;;
76348;SDS011;65172;46.764;15.406;2023-03-24T05:55:30;14.93;;;9.90;;
76348;SDS011;65172;46.764;15.406;2023-03-24T05:57:56;15.18;;;9.38;;
76348;SDS011;65172;46.764;15.406;2023-03-24T06:00:21;14.07;;;9.02;;
76348;SDS011;65172;46.764;15.406;2023-03-24T06:02:48;15.05;;;8.90;;
76348;SDS011;65172;46.764;15.406;2023-03-24T06:05:14;17.55;;;9.30;;
76348;SDS011;65172;46.764;15.406;2023-03-24T06:07:39;11.88;;;8.95;;
76348;SDS011;65172;46.764;15.406;2023-03-24T06:10:07;14.02;;;9.35;;
76348;SDS011;65172;46.764;15.406;2023-03-24T06:12:34;13.77;;;9.07;;
76348;SDS011;65172;46.764;15.406;2023-03-24T06:14:59;14.18;;;9.98;;
76348;SDS011;65172;46.764;15.406;2023-03-24T06:17:25;14.38;;;8.55;;
76348;SDS011;65172;46.764;15.406;2023-03-24T06:19:52;15.70;;;9.43;;
76348;SDS011;65172;46.764;15.406;2023-03-24T06:22:27;13.70;;;9.35;;
76348;SDS011;65172;46.764;15.406;2023-03-24T06:24:53;14.95;;;9.18;;
76348;SDS011;65172;46.764;15.406;2023-03-24T06:27:20;12.10;;;8.80;;
76348;SDS011;65172;46.764;15.406;2023-03-24T06:29:49;11.13;;;9.07;;
76348;SDS011;65172;46.764;15.406;2023-03-24T06:32:17;12.15;;;9.70;;
76348;SDS011;65172;46.764;15.406;2023-03-24T06:34:43;12.68;;;8.52;;
76348;SDS011;65172;46.764;15.406;2023-03-24T06:37:09;13.50;;;8.77;;
76348;SDS011;65172;46.764;15.406;2023-03-24T06:39:34;15.00;;;9.00;;
76348;SDS011;65172;46.764;15.406;2023-03-24T06:42:00;13.00;;;9.52;;
76348;SDS011;65172;46.764;15.406;2023-03-24T06:44:26;13.20;;;9.57;;
76348;SDS011;65172;46.764;15.406;2023-03-24T06:46:51;12.45;;;9.32;;
76348;SDS011;65172;46.764;15.406;2023-03-24T06:49:17;11.63;;;8.98;;
76348;SDS011;65172;46.764;15.406;2023-03-24T06:51:42;11.13;;;8.75;;
76348;SDS011;65172;46.764;15.406;2023-03-24T06:54:08;10.80;;;8.50;;
76348;SDS011;65172;46.764;15.406;2023-03-24T06:56:33;12.10;;;8.85;;
76348;SDS011;65172;46.764;15.406;2023-03-24T06:58:59;13.77;;;8.52;;
76348;SDS011;65172;46.764;15.406;2023-03-24T07:01:25;10.95;;;8.73;;
76348;SDS011;65172;46.764;15.406;2023-03-24T07:03:51;11.43;;;8.50;;
76348;SDS011;65172;46.764;15.406;2023-03-24T07:06:17;13.32;;;8.27;;
76348;SDS011;65172;46.764;15.406;2023-03-24T07:08:43;11.77;;;8.32;;
76348;SDS011;65172;46.764;15.406;2023-03-24T07:11:08;16.65;;;9.95;;
76348;SDS011;65172;46.764;15.406;2023-03-24T07:13:35;18.40;;;10.00;;
76348;SDS011;65172;46.764;15.406;2023-03-24T07:16:00;18.17;;;11.00;;
76348;SDS011;65172;46.764;15.406;2023-03-24T07:18:26;21.92;;;11.73;;
76348;SDS011;65172;46.764;15.406;2023-03-24T07:20:52;14.73;;;10.05;;
76348;SDS011;65172;46.764;15.406;2023-03-24T07:23:17;16.70;;;10.30;;
76348;SDS011;65172;46.764;15.406;2023-03-24T07:25:43;16.27;;;10.85;;
76348;SDS011;65172;46.764;15.406;2023-03-24T07:28:09;19.08;;;11.15;;
76348;SDS011;65172;46.764;15.406;2023-03-24T07:30:35;15.48;;;10.57;;
76348;SDS011;65172;46.764;15.406;2023-03-24T07:33:04;18.13;;;10.15;;
76348;SDS011;65172;46.764;15.406;2023-03-24T07:35:30;16.30;;;10.65;;
76348;SDS011;65172;46.764;15.406;2023-03-24T07:37:59;18.08;;;10.50;;
76348;SDS011;65172;46.764;15.406;2023-03-24T07:40:25;15.73;;;10.82;;
76348;SDS011;65172;46.764;15.406;2023-03-24T07:42:50;16.13;;;10.85;;
76348;SDS011;65172;46.764;15.406;2023-03-24T07:45:16;15.82;;;11.60;;
76348;SDS011;65172;46.764;15.406;2023-03-24T07:47:42;13.80;;;10.80;;
76348;SDS011;65172;46.764;15.406;2023-03-24T07:50:08;19.83;;;12.48;;
76348;SDS011;65172;46.764;15.406;2023-03-24T07:52:38;18.30;;;12.07;;
76348;SDS011;65172;46.764;15.406;2023-03-24T07:55:05;15.80;;;11.50;;
76348;SDS011;65172;46.764;15.406;2023-03-24T07:57:33;18.90;;;13.10;;
76348;SDS011;65172;46.764;15.406;2023-03-24T08:00:04;17.85;;;12.43;;
76348;SDS011;65172;46.764;15.406;2023-03-24T08:02:40;16.83;;;12.82;;
76348;SDS011;65172;46.764;15.406;2023-03-24T08:05:07;19.63;;;13.52;;
76348;SDS011;65172;46.764;15.406;2023-03-24T08:07:38;15.57;;;11.43;;
76348;SDS011;65172;46.764;15.406;2023-03-24T08:10:15;15.30;;;11.10;;
76348;SDS011;65172;46.764;15.406;2023-03-24T08:12:41;14.27;;;11.63;;
76348;SDS011;65172;46.764;15.406;2023-03-24T08:15:07;17.60;;;13.07;;
76348;SDS011;65172;46.764;15.406;2023-03-24T08:17:33;21.77;;;14.95;;
76348;SDS011;65172;46.764;15.406;2023-03-24T08:19:59;19.90;;;13.85;;
76348;SDS011;65172;46.764;15.406;2023-03-24T08:22:26;24.15;;;14.98;;
76348;SDS011;65172;46.764;15.406;2023-03-24T08:24:52;21.95;;;14.98;;
76348;SDS011;65172;46.764;15.406;2023-03-24T08:27:17;20.25;;;14.38;;
76348;SDS011;65172;46.764;15.406;2023-03-24T08:29:43;22.27;;;15.13;;
76348;SDS011;65172;46.764;15.406;2023-03-24T08:32:08;21.58;;;14.50;;
76348;SDS011;65172;46.764;15.406;2023-03-24T08:34:34;17.88;;;13.13;;
76348;SDS011;65172;46.764;15.406;2023-03-24T08:36:59;20.15;;;15.45;;
76348;SDS011;65172;46.764;15.406;2023-03-24T08:39:25;25.85;;;15.18;;
76348;SDS011;65172;46.764;15.406;2023-03-24T08:41:50;22.48;;;15.15;;
76348;SDS011;65172;46.764;15.406;2023-03-24T08:44:18;22.30;;;15.32;;
76348;SDS011;65172;46.764;15.406;2023-03-24T08:46:43;19.60;;;13.68;;
76348;SDS011;65172;46.764;15.406;2023-03-24T08:49:09;17.27;;;13.18;;
76348;SDS011;65172;46.764;15.406;2023-03-24T08:51:35;15.82;;;12.77;;
76348;SDS011;65172;46.764;15.406;2023-03-24T08:54:01;20.33;;;13.60;;
76348;SDS011;65172;46.764;15.406;2023-03-24T08:56:28;21.02;;;13.38;;
76348;SDS011;65172;46.764;15.406;2023-03-24T08:58:53;18.58;;;13.07;;
76348;SDS011;65172;46.764;15.406;2023-03-24T09:01:19;16.25;;;12.55;;
76348;SDS011;65172;46.764;15.406;2023-03-24T09:03:46;16.50;;;11.82;;
76348;SDS011;65172;46.764;15.406;2023-03-24T09:06:12;15.07;;;11.23;;
76348;SDS011;65172;46.764;15.406;2023-03-24T09:08:38;15.52;;;11.23;;
76348;SDS011;65172;46.764;15.406;2023-03-24T09:11:05;17.63;;;11.50;;
76348;SDS011;65172;46.764;15.406;2023-03-24T09:13:31;18.02;;;12.70;;
76348;SDS011;65172;46.764;15.406;2023-03-24T09:15:58;13.93;;;10.65;;
76348;SDS011;65172;46.764;15.406;2023-03-24T09:18:26;13.02;;;9.35;;
76348;SDS011;65172;46.764;15.406;2023-03-24T09:20:52;14.32;;;11.20;;
76348;SDS011;65172;46.764;15.406;2023-03-24T09:23:18;18.55;;;10.70;;
76348;SDS011;65172;46.764;15.406;2023-03-24T09:25:47;13.43;;;10.88;;
76348;SDS011;65172;46.764;15.406;2023-03-24T09:28:16;15.52;;;10.15;;
76348;SDS011;65172;46.764;15.406;2023-03-24T09:30:41;12.60;;;9.45;;
76348;SDS011;65172;46.764;15.406;2023-03-24T09:33:07;15.70;;;10.68;;
76348;SDS011;65172;46.764;15.406;2023-03-24T09:35:33;15.73;;;10.40;;
76348;SDS011;65172;46.764;15.406;2023-03-24T09:37:58;14.43;;;9.98;;
76348;SDS011;65172;46.764;15.406;2023-03-24T09:40:25;14.00;;;9.20;;
76348;SDS011;65172;46.764;15.406;2023-03-24T09:43:14;16.70;;;10.07;;
76348;SDS011;65172;46.764;15.406;2023-03-24T09:45:58;11.80;;;8.82;;
76348;SDS011;65172;46.764;15.406;2023-03-24T09:51:05;13.38;;;8.98;;
76348;SDS011;65172;46.764;15.406;2023-03-24T09:56:22;13.15;;;9.35;;
76348;SDS011;65172;46.764;15.406;2023-03-24T09:58:49;12.45;;;8.27;;
76348;SDS011;65172;46.764;15.406;2023-03-24T10:01:18;11.85;;;8.63;;
76348;SDS011;65172;46.764;15.406;2023-03-24T10:03:44;13.90;;;9.35;;
76348;SDS011;65172;46.764;15.406;2023-03-24T10:06:14;15.15;;;8.98;;
76348;SDS011;65172;46.764;15.406;2023-03-24T10:08:49;14.73;;;9.13;;
76348;SDS011;65172;46.764;15.406;2023-03-24T10:22:13;12.23;;;8.52;;
76348;SDS011;65172;46.764;15.406;2023-03-24T10:24:50;13.20;;;9.20;;
76348;SDS011;65172;46.764;15.406;2023-03-24T10:27:33;13.25;;;9.13;;
76348;SDS011;65172;46.764;15.406;2023-03-24T10:30:22;12.30;;;9.02;;
76348;SDS011;65172;46.764;15.406;2023-03-24T10:32:47;10.90;;;7.88;;
76348;SDS011;65172;46.764;15.406;2023-03-24T10:35:14;10.73;;;8.00;;
76348;SDS011;65172;46.764;15.406;2023-03-24T10:37:42;10.05;;;8.15;;
76348;SDS011;65172;46.764;15.406;2023-03-24T10:40:16;9.40;;;7.63;;
76348;SDS011;65172;46.764;15.406;2023-03-24T10:42:43;11.77;;;6.90;;
76348;SDS011;65172;46.764;15.406;2023-03-24T10:45:11;9.75;;;7.47;;
76348;SDS011;65172;46.764;15.406;2023-03-24T10:47:38;9.88;;;6.88;;
76348;SDS011;65172;46.764;15.406;2023-03-24T10:50:05;12.63;;;7.70;;
76348;SDS011;65172;46.764;15.406;2023-03-24T10:52:38;9.27;;;7.70;;
76348;SDS011;65172;46.764;15.406;2023-03-24T10:57:31;11.82;;;8.18;;
76348;SDS011;65172;46.764;15.406;2023-03-24T11:00:04;9.32;;;7.28;;
76348;SDS011;65172;46.764;15.406;2023-03-24T11:02:39;12.95;;;6.72;;
76348;SDS011;65172;46.764;15.406;2023-03-24T11:05:17;7.82;;;6.68;;
76348;SDS011;65172;46.764;15.406;2023-03-24T11:07:45;12.98;;;7.00;;
76348;SDS011;65172;46.764;15.406;2023-03-24T11:10:16;11.50;;;6.40;;
76348;SDS011;65172;46.764;15.406;2023-03-24T11:15:21;10.05;;;6.97;;
76348;SDS011;65172;46.764;15.406;2023-03-24T11:20:34;8.32;;;7.13;;
76348;SDS011;65172;46.764;15.406;2023-03-24T11:23:13;8.40;;;6.70;;
76348;SDS011;65172;46.764;15.406;2023-03-24T11:25:40;9.98;;;7.35;;
76348;SDS011;65172;46.764;15.406;2023-03-24T11:28:07;12.82;;;7.85;;
76348;SDS011;65172;46.764;15.406;2023-03-24T11:30:36;8.90;;;7.40;;
76348;SDS011;65172;46.764;15.406;2023-03-24T11:33:12;10.98;;;7.57;;
76348;SDS011;65172;46.764;15.406;2023-03-24T11:35:52;8.00;;;6.85;;
76348;SDS011;65172;46.764;15.406;2023-03-24T11:38:18;13.40;;;8.30;;
76348;SDS011;65172;46.764;15.406;2023-03-24T11:40:53;8.27;;;6.18;;
76348;SDS011;65172;46.764;15.406;2023-03-24T11:43:22;9.80;;;7.18;;
76348;SDS011;65172;46.764;15.406;2023-03-24T11:45:52;10.38;;;7.28;;
76348;SDS011;65172;46.764;15.406;2023-03-24T11:51:13;11.10;;;7.03;;
76348;SDS011;65172;46.764;15.406;2023-03-24T11:53:48;8.13;;;6.85;;
76348;SDS011;65172;46.764;15.406;2023-03-24T11:59:03;8.20;;;6.78;;
76348;SDS011;65172;46.764;15.406;2023-03-24T12:01:32;14.10;;;7.32;;
76348;SDS011;65172;46.764;15.406;2023-03-24T12:07:00;10.52;;;6.47;;
76348;SDS011;65172;46.764;15.406;2023-03-24T12:09:45;8.70;;;7.28;;
76348;SDS011;65172;46.764;15.406;2023-03-24T12:28:38;8.77;;;6.72;;
76348;SDS011;65172;46.764;15.406;2023-03-24T12:43:10;9.57;;;7.30;;
76348;SDS011;65172;46.764;15.406;2023-03-24T12:45:46;10.10;;;7.90;;
76348;SDS011;65172;46.764;15.406;2023-03-24T12:51:29;10.07;;;7.47;;
76348;SDS011;65172;46.764;15.406;2023-03-24T12:57:04;11.63;;;8.10;;
76348;SDS011;65172;46.764;15.406;2023-03-24T12:59:45;11.57;;;8.18;;
76348;SDS011;65172;46.764;15.406;2023-03-24T13:02:18;9.27;;;7.53;;
76348;SDS011;65172;46.764;15.406;2023-03-24T13:04:56;10.25;;;7.60;;
76348;SDS011;65172;46.764;15.406;2023-03-24T13:07:28;11.27;;;8.70;;
76348;SDS011;65172;46.764;15.406;2023-03-24T13:12:37;10.30;;;6.88;;
76348;SDS011;65172;46.764;15.406;2023-03-24T13:20:42;9.43;;;6.32;;
76348;SDS011;65172;46.764;15.406;2023-03-24T13:31:18;10.55;;;6.63;;
76348;SDS011;65172;46.764;15.406;2023-03-24T13:33:45;9.63;;;6.45;;
76348;SDS011;65172;46.764;15.406;2023-03-24T13:36:30;13.40;;;6.25;;
76348;SDS011;65172;46.764;15.406;2023-03-24T13:39:18;8.25;;;5.70;;
76348;SDS011;65172;46.764;15.406;2023-03-24T13:41:46;11.73;;;6.78;;
76348;SDS011;65172;46.764;15.406;2023-03-24T13:44:21;12.02;;;5.80;;
76348;SDS011;65172;46.764;15.406;2023-03-24T13:47:04;9.27;;;6.00;;
76348;SDS011;65172;46.764;15.406;2023-03-24T13:49:33;8.38;;;5.63;;
76348;SDS011;65172;46.764;15.406;2023-03-24T13:52:12;8.63;;;6.00;;
76348;SDS011;65172;46.764;15.406;2023-03-24T13:54:46;8.70;;;6.75;;
76348;SDS011;65172;46.764;15.406;2023-03-24T13:57:21;8.63;;;6.40;;
76348;SDS011;65172;46.764;15.406;2023-03-24T14:02:43;6.57;;;5.55;;
76348;SDS011;65172;46.764;15.406;2023-03-24T14:05:12;8.88;;;5.63;;
76348;SDS011;65172;46.764;15.406;2023-03-24T14:12:53;10.38;;;6.25;;
76348;SDS011;65172;46.764;15.406;2023-03-24T14:17:52;9.57;;;6.30;;
76348;SDS011;65172;46.764;15.406;2023-03-24T14:20:31;10.27;;;5.47;;
76348;SDS011;65172;46.764;15.406;2023-03-24T14:22:59;7.88;;;4.60;;
76348;SDS011;65172;46.764;15.406;2023-03-24T14:25:28;10.00;;;6.05;;
76348;SDS011;65172;46.764;15.406;2023-03-24T14:28:40;6.75;;;5.70;;
76348;SDS011;65172;46.764;15.406;2023-03-24T14:33:56;12.70;;;5.57;;
76348;SDS011;65172;46.764;15.406;2023-03-24T14:36:35;6.68;;;5.65;;
76348;SDS011;65172;46.764;15.406;2023-03-24T14:41:48;9.07;;;5.60;;
76348;SDS011;65172;46.764;15.406;2023-03-24T14:44:50;8.88;;;4.70;;
76348;SDS011;65172;46.764;15.406;2023-03-24T14:47:20;8.47;;;5.67;;
76348;SDS011;65172;46.764;15.406;2023-03-24T14:49:59;6.82;;;5.03;;
76348;SDS011;65172;46.764;15.406;2023-03-24T14:52:48;7.57;;;4.05;;
76348;SDS011;65172;46.764;15.406;2023-03-24T14:55:16;8.25;;;5.50;;
76348;SDS011;65172;46.764;15.406;2023-03-24T14:57:59;9.15;;;5.47;;
76348;SDS011;65172;46.764;15.406;2023-03-24T15:00:30;11.05;;;5.30;;
76348;SDS011;65172;46.764;15.406;2023-03-24T15:03:09;9.75;;;5.47;;
76348;SDS011;65172;46.764;15.406;2023-03-24T15:05:52;7.18;;;5.53;;
76348;SDS011;65172;46.764;15.406;2023-03-24T15:08:21;7.93;;;5.47;;
76348;SDS011;65172;46.764;15.406;2023-03-24T15:15:58;7.95;;;5.72;;
76348;SDS011;65172;46.764;15.406;2023-03-24T15:18:25;7.55;;;5.22;;
76348;SDS011;65172;46.764;15.406;2023-03-24T15:20:50;6.68;;;4.68;;
76348;SDS011;65172;46.764;15.406;2023-03-24T15:23:17;6.85;;;4.70;;
76348;SDS011;65172;46.764;15.406;2023-03-24T15:25:45;7.28;;;5.32;;
76348;SDS011;65172;46.764;15.406;2023-03-24T15:30:52;7.15;;;4.75;;
76348;SDS011;65172;46.764;15.406;2023-03-24T15:33:18;7.07;;;5.40;;
76348;SDS011;65172;46.764;15.406;2023-03-24T15:35:44;8.18;;;5.28;;
76348;SDS011;65172;46.764;15.406;2023-03-24T15:38:20;8.40;;;5.38;;
76348;SDS011;65172;46.764;15.406;2023-03-24T15:41:08;7.75;;;5.03;;
76348;SDS011;65172;46.764;15.406;2023-03-24T15:43:40;6.45;;;4.47;;
76348;SDS011;65172;46.764;15.406;2023-03-24T15:46:43;9.32;;;4.93;;
76348;SDS011;65172;46.764;15.406;2023-03-24T15:49:01;7.45;;;4.50;;
76348;SDS011;65172;46.764;15.406;2023-03-24T15:51:47;6.78;;;5.30;;
76348;SDS011;65172;46.764;15.406;2023-03-24T15:56:58;7.07;;;4.60;;
76348;SDS011;65172;46.764;15.406;2023-03-24T15:59:41;9.40;;;5.10;;
76348;SDS011;65172;46.764;15.406;2023-03-24T16:02:17;6.90;;;5.00;;
76348;SDS011;65172;46.764;15.406;2023-03-24T16:04:47;7.10;;;4.80;;
76348;SDS011;65172;46.764;15.406;2023-03-24T16:07:23;6.82;;;4.10;;
76348;SDS011;65172;46.764;15.406;2023-03-24T16:09:57;7.70;;;3.95;;
76348;SDS011;65172;46.764;15.406;2023-03-24T16:12:29;8.10;;;4.30;;
76348;SDS011;65172;46.764;15.406;2023-03-24T16:14:58;6.78;;;4.53;;
76348;SDS011;65172;46.764;15.406;2023-03-24T16:17:24;10.73;;;4.75;;
76348;SDS011;65172;46.764;15.406;2023-03-24T16:19:49;7.72;;;4.70;;
76348;SDS011;65172;46.764;15.406;2023-03-24T16:22:15;11.25;;;4.30;;
76348;SDS011;65172;46.764;15.406;2023-03-24T16:24:40;7.63;;;3.97;;
76348;SDS011;65172;46.764;15.406;2023-03-24T16:27:07;10.02;;;4.30;;
76348;SDS011;65172;46.764;15.406;2023-03-24T16:29:33;4.70;;;3.92;;
76348;SDS011;65172;46.764;15.406;2023-03-24T16:32:00;6.65;;;3.92;;
76348;SDS011;65172;46.764;15.406;2023-03-24T16:34:26;5.65;;;4.10;;
76348;SDS011;65172;46.764;15.406;2023-03-24T16:36:52;8.73;;;4.30;;
76348;SDS011;65172;46.764;15.406;2023-03-24T16:39:19;5.60;;;3.88;;
76348;SDS011;65172;46.764;15.406;2023-03-24T16:41:55;9.90;;;3.88;;
76348;SDS011;65172;46.764;15.406;2023-03-24T16:44:21;6.00;;;4.28;;
76348;SDS011;65172;46.764;15.406;2023-03-24T16:46:47;7.20;;;4.07;;
76348;SDS011;65172;46.764;15.406;2023-03-24T16:49:15;6.28;;;3.88;;
76348;SDS011;65172;46.764;15.406;2023-03-24T16:51:41;6.60;;;4.28;;
76348;SDS011;65172;46.764;15.406;2023-03-24T16:54:07;6.32;;;4.25;;
76348;SDS011;65172;46.764;15.406;2023-03-24T16:56:33;9.25;;;4.20;;
76348;SDS011;65172;46.764;15.406;2023-03-24T16:58:59;4.97;;;3.72;;
76348;SDS011;65172;46.764;15.406;2023-03-24T17:01:28;6.90;;;4.10;;
76348;SDS011;65172;46.764;15.406;2023-03-24T17:04:01;6.70;;;4.25;;
76348;SDS011;65172;46.764;15.406;2023-03-24T17:06:36;5.75;;;4.10;;